createdAt,value
2022-12-06T00:01:28.892Z,4.40
2022-12-06T00:03:58.622Z,4.40
2022-12-06T00:06:28.544Z,4.40
2022-12-06T00:08:57.608Z,4.40
2022-12-06T00:11:29.301Z,4.40
2022-12-06T00:13:58.831Z,4.40
2022-12-06T00:16:28.118Z,4.40
2022-12-06T00:18:56.359Z,4.40
2022-12-06T00:21:26.143Z,4.40
2022-12-06T00:23:55.721Z,4.40
2022-12-06T00:26:24.302Z,4.40
2022-12-06T00:28:55.691Z,4.40
2022-12-06T00:31:25.806Z,4.40
2022-12-06T00:33:54.315Z,4.40
2022-12-06T00:36:25.188Z,4.40
2022-12-06T00:38:53.323Z,4.40
2022-12-06T00:41:23.438Z,4.40
2022-12-06T00:43:52.057Z,4.40
2022-12-06T00:46:23.629Z,4.40
2022-12-06T00:48:52.582Z,4.40
2022-12-06T00:51:21.897Z,4.40
2022-12-06T00:53:50.747Z,4.40
2022-12-06T00:56:19.599Z,4.40
2022-12-06T00:58:47.823Z,4.30
2022-12-06T01:01:18.359Z,4.30
2022-12-06T01:03:51.353Z,4.30
2022-12-06T01:06:22.725Z,4.30
2022-12-06T01:08:50.974Z,4.30
2022-12-06T01:11:21.463Z,4.30
2022-12-06T01:13:49.699Z,4.30
2022-12-06T01:16:20.769Z,4.30
2022-12-06T01:18:54.128Z,4.30
2022-12-06T01:21:22.867Z,4.30
2022-12-06T01:23:51.904Z,4.30
2022-12-06T01:26:22.736Z,4.30
2022-12-06T01:28:50.779Z,4.30
2022-12-06T01:31:19.327Z,4.40
2022-12-06T01:33:49.060Z,4.30
2022-12-06T01:36:18.494Z,4.40
2022-12-06T01:38:51.038Z,4.40
2022-12-06T01:41:20.002Z,4.40
2022-12-06T01:43:48.868Z,4.40
2022-12-06T01:46:26.087Z,4.30
2022-12-06T01:49:01.660Z,4.40
2022-12-06T01:51:30.454Z,4.40
2022-12-06T01:54:00.434Z,4.30
2022-12-06T01:56:28.787Z,4.40
2022-12-06T01:58:59.452Z,4.30
2022-12-06T02:01:29.275Z,4.40
2022-12-06T02:04:01.734Z,4.40
2022-12-06T02:06:31.353Z,4.40
2022-12-06T02:09:02.029Z,4.40
2022-12-06T02:11:34.934Z,4.30
2022-12-06T02:14:05.677Z,4.30
2022-12-06T02:16:52.888Z,4.30
2022-12-06T02:19:49.081Z,4.30
2022-12-06T02:22:23.232Z,4.20
2022-12-06T02:25:31.568Z,4.30
2022-12-06T02:28:41.051Z,4.30
2022-12-06T02:31:13.989Z,4.20
2022-12-06T02:33:46.967Z,4.30
2022-12-06T02:36:20.617Z,4.30
2022-12-06T02:38:52.075Z,4.20
2022-12-06T02:41:25.149Z,4.30
2022-12-06T02:43:59.714Z,4.30
2022-12-06T02:46:33.832Z,4.30
2022-12-06T02:49:05.080Z,4.30
2022-12-06T02:51:35.976Z,4.30
2022-12-06T02:54:06.852Z,4.30
2022-12-06T02:56:35.793Z,4.30
2022-12-06T02:59:03.797Z,4.30
2022-12-06T03:01:36.880Z,4.20
2022-12-06T03:04:32.492Z,4.30
2022-12-06T03:07:11.092Z,4.20
2022-12-06T03:09:50.493Z,4.20
2022-12-06T03:12:26.145Z,4.20
2022-12-06T03:15:06.122Z,4.20
2022-12-06T03:17:43.503Z,4.30
2022-12-06T03:20:15.187Z,4.20
2022-12-06T03:22:48.101Z,4.20
2022-12-06T03:25:17.236Z,4.30
2022-12-06T03:27:46.539Z,4.20
2022-12-06T03:30:15.834Z,4.20
2022-12-06T03:32:47.990Z,4.30
2022-12-06T03:35:19.194Z,4.30
2022-12-06T03:37:52.111Z,4.30
2022-12-06T03:40:25.106Z,4.20
2022-12-06T03:42:54.118Z,4.30
2022-12-06T03:45:27.984Z,4.30
2022-12-06T03:48:03.984Z,4.30
2022-12-06T03:50:37.050Z,4.20
2022-12-06T03:53:05.249Z,4.20
2022-12-06T03:55:33.286Z,4.30
2022-12-06T03:58:01.298Z,4.20
2022-12-06T04:00:29.283Z,4.20
2022-12-06T04:02:58.651Z,4.30
2022-12-06T04:05:26.863Z,4.20
2022-12-06T04:07:54.914Z,4.20
2022-12-06T04:10:23.095Z,4.20
2022-12-06T04:13:05.251Z,4.20
2022-12-06T04:15:36.186Z,4.20
2022-12-06T04:18:14.023Z,4.10
2022-12-06T04:21:02.931Z,4.10
2022-12-06T04:23:33.212Z,4.20
2022-12-06T04:26:01.485Z,4.10
2022-12-06T04:28:47.197Z,4.10
2022-12-06T04:31:33.337Z,4.10
2022-12-06T04:34:20.345Z,4.10
2022-12-06T04:37:06.297Z,4.10
2022-12-06T04:39:34.798Z,4.10
2022-12-06T04:42:20.703Z,4.10
2022-12-06T04:44:48.914Z,4.10
2022-12-06T04:47:17.259Z,4.10
2022-12-06T04:49:46.665Z,4.10
2022-12-06T04:52:15.232Z,4.10
2022-12-06T04:54:43.948Z,4.10
2022-12-06T04:57:13.865Z,4.10
2022-12-06T04:59:43.339Z,4.10
2022-12-06T05:02:13.682Z,4.10
2022-12-06T05:04:41.665Z,4.10
2022-12-06T05:07:11.652Z,4.10
2022-12-06T05:09:39.994Z,4.10
2022-12-06T05:12:08.750Z,4.10
2022-12-06T05:14:37.048Z,4.10
2022-12-06T05:17:05.121Z,4.10
2022-12-06T05:19:33.121Z,4.10
2022-12-06T05:22:01.160Z,4.10
2022-12-06T05:24:30.553Z,4.10
2022-12-06T05:26:58.598Z,4.10
2022-12-06T05:29:27.165Z,4.10
2022-12-06T05:31:55.238Z,4.10
2022-12-06T05:34:24.766Z,4.10
2022-12-06T05:36:52.774Z,4.10
2022-12-06T05:39:20.831Z,4.10
2022-12-06T05:41:50.171Z,4.10
2022-12-06T05:44:18.257Z,4.10
2022-12-06T05:46:46.340Z,4.10
2022-12-06T05:49:16.977Z,4.10
2022-12-06T05:51:45.341Z,4.00
2022-12-06T05:54:13.398Z,4.10
2022-12-06T05:56:41.411Z,4.10
2022-12-06T05:59:10.773Z,4.10
2022-12-06T06:01:39.214Z,4.10
2022-12-06T06:04:07.247Z,4.10
2022-12-06T06:06:35.248Z,4.10
2022-12-06T06:09:03.283Z,4.10
2022-12-06T06:11:31.270Z,4.10
2022-12-06T06:13:59.600Z,4.10
2022-12-06T06:16:28.995Z,4.10
2022-12-06T06:18:57.124Z,4.10
2022-12-06T06:21:25.277Z,4.10
2022-12-06T06:23:53.303Z,4.10
2022-12-06T06:26:21.343Z,4.10
2022-12-06T06:28:49.417Z,4.10
2022-12-06T06:31:17.511Z,4.10
2022-12-06T06:33:46.949Z,4.00
2022-12-06T06:36:16.070Z,4.00
2022-12-06T06:38:44.054Z,4.00
2022-12-06T06:41:12.264Z,4.00
2022-12-06T06:43:43.449Z,4.00
2022-12-06T06:46:11.584Z,4.00
2022-12-06T06:48:40.843Z,4.00
2022-12-06T06:51:13.543Z,4.00
2022-12-06T06:53:41.641Z,4.00
2022-12-06T06:56:10.071Z,4.00
2022-12-06T06:58:38.206Z,4.00
2022-12-06T07:01:08.042Z,4.00
2022-12-06T07:03:36.816Z,4.00
2022-12-06T07:06:08.687Z,4.00
2022-12-06T07:08:39.268Z,4.00
2022-12-06T07:11:07.924Z,4.00
2022-12-06T07:13:36.986Z,4.00
2022-12-06T07:16:06.609Z,4.00
2022-12-06T07:18:34.890Z,4.00
2022-12-06T07:21:05.102Z,4.00
2022-12-06T07:23:34.628Z,4.00
2022-12-06T07:26:07.023Z,4.00
2022-12-06T07:28:37.586Z,4.00
2022-12-06T07:31:09.949Z,4.00
2022-12-06T07:33:38.963Z,4.00
2022-12-06T07:36:13.256Z,3.90
2022-12-06T07:38:43.259Z,3.90
2022-12-06T07:41:32.400Z,4.00
2022-12-06T07:44:28.206Z,4.00
2022-12-06T07:46:56.913Z,4.00
2022-12-06T07:49:28.190Z,4.00
2022-12-06T07:51:57.384Z,4.00
2022-12-06T07:54:26.538Z,4.00
2022-12-06T07:56:57.585Z,4.00
2022-12-06T07:59:26.426Z,4.00
2022-12-06T08:01:54.906Z,3.90
2022-12-06T08:04:23.035Z,4.00
2022-12-06T08:06:51.140Z,4.00
2022-12-06T08:09:19.879Z,4.00
2022-12-06T08:11:47.949Z,4.00
2022-12-06T08:14:19.975Z,4.00
2022-12-06T08:16:47.995Z,4.00
2022-12-06T08:19:16.019Z,4.00
2022-12-06T08:21:44.024Z,4.00
2022-12-06T08:24:13.075Z,4.00
2022-12-06T08:26:43.275Z,4.10
2022-12-06T08:29:11.341Z,4.10
2022-12-06T08:31:40.983Z,4.10
2022-12-06T08:34:09.301Z,4.10
2022-12-06T08:36:40.066Z,4.10
2022-12-06T08:39:09.329Z,4.10
2022-12-06T08:41:54.983Z,4.10
2022-12-06T08:44:23.717Z,4.10
2022-12-06T08:46:54.643Z,4.20
2022-12-06T08:49:24.118Z,4.20
2022-12-06T08:51:52.774Z,4.20
2022-12-06T08:54:22.963Z,4.20
2022-12-06T08:56:51.980Z,4.20
2022-12-06T08:59:20.379Z,4.10
2022-12-06T09:01:49.205Z,4.10
2022-12-06T09:04:18.907Z,4.10
2022-12-06T09:06:48.017Z,4.20
2022-12-06T09:09:18.551Z,4.10
2022-12-06T09:11:49.678Z,4.10
2022-12-06T09:14:21.811Z,4.10
2022-12-06T09:16:51.728Z,4.10
2022-12-06T09:19:24.022Z,4.10
2022-12-06T09:21:52.192Z,4.10
2022-12-06T09:24:20.671Z,4.20
2022-12-06T09:26:48.702Z,4.20
2022-12-06T09:29:18.356Z,4.20
2022-12-06T09:31:46.550Z,4.30
2022-12-06T09:34:15.003Z,4.20
2022-12-06T09:36:47.928Z,4.30
2022-12-06T09:39:22.023Z,4.30
2022-12-06T09:42:16.975Z,4.30
2022-12-06T09:45:22.084Z,4.30
2022-12-06T09:48:04.105Z,4.30
2022-12-06T09:50:45.082Z,4.30
2022-12-06T09:53:23.769Z,4.30
2022-12-06T09:56:03.798Z,4.30
2022-12-06T09:58:46.845Z,4.30
2022-12-06T10:01:22.805Z,4.30
2022-12-06T10:04:00.100Z,4.40
2022-12-06T10:06:36.384Z,4.40
2022-12-06T10:09:26.540Z,4.40
2022-12-06T10:12:11.802Z,4.40
2022-12-06T10:14:55.739Z,4.40
2022-12-06T10:17:30.199Z,4.40
2022-12-06T10:20:06.918Z,4.40
2022-12-06T10:22:47.819Z,4.40
2022-12-06T10:25:25.704Z,4.40
2022-12-06T10:28:09.000Z,4.50
2022-12-06T10:30:43.522Z,4.50
2022-12-06T10:33:20.868Z,4.50
2022-12-06T10:35:54.431Z,4.50
2022-12-06T10:38:29.328Z,4.50
2022-12-06T10:41:17.404Z,4.50
2022-12-06T10:43:53.890Z,4.50
2022-12-06T10:46:45.589Z,4.50
2022-12-06T10:49:23.315Z,4.50
2022-12-06T10:51:59.344Z,4.60
2022-12-06T10:54:34.260Z,4.60
2022-12-06T10:57:08.349Z,4.60
2022-12-06T10:59:40.923Z,4.60
2022-12-06T11:02:23.108Z,4.60
2022-12-06T11:04:53.924Z,4.60
2022-12-06T11:07:28.037Z,4.60
2022-12-06T11:09:57.907Z,4.60
2022-12-06T11:12:33.844Z,4.70
2022-12-06T11:15:08.307Z,4.70
2022-12-06T11:17:40.527Z,4.70
2022-12-06T11:20:23.398Z,4.70
2022-12-06T11:23:05.912Z,4.80
2022-12-06T11:25:42.654Z,4.80
2022-12-06T11:28:24.445Z,4.80
2022-12-06T11:30:57.180Z,4.90
2022-12-06T11:33:30.849Z,4.90
2022-12-06T11:36:02.187Z,4.90
2022-12-06T11:38:30.500Z,4.80
2022-12-06T11:41:00.042Z,4.90
2022-12-06T11:43:35.208Z,4.90
2022-12-06T11:46:04.775Z,4.90
2022-12-06T11:48:35.981Z,4.90
2022-12-06T11:51:04.370Z,4.90
2022-12-06T11:53:36.546Z,4.90
2022-12-06T11:56:11.516Z,4.90
2022-12-06T11:58:47.876Z,4.90
2022-12-06T12:01:15.907Z,4.90
2022-12-06T12:03:48.715Z,4.90
2022-12-06T12:06:22.927Z,4.90
2022-12-06T12:08:59.721Z,5.00
2022-12-06T12:11:30.111Z,4.90
2022-12-06T12:14:03.583Z,5.00
2022-12-06T12:16:35.683Z,4.90
2022-12-06T12:19:07.088Z,5.00
2022-12-06T12:21:39.159Z,5.00
2022-12-06T12:24:28.248Z,5.00
2022-12-06T12:26:56.492Z,4.90
2022-12-06T12:29:25.864Z,4.90
2022-12-06T12:31:57.254Z,4.90
2022-12-06T12:34:27.775Z,4.90
2022-12-06T12:36:58.266Z,4.90
2022-12-06T12:39:34.282Z,4.90
2022-12-06T12:42:03.277Z,4.90
2022-12-06T12:44:38.415Z,4.90
2022-12-06T12:47:18.721Z,4.90
2022-12-06T12:50:01.748Z,4.90
2022-12-06T12:52:31.767Z,4.90
2022-12-06T12:55:01.935Z,4.90
2022-12-06T12:57:30.333Z,4.90
2022-12-06T13:00:02.135Z,4.90
2022-12-06T13:02:32.090Z,4.90
2022-12-06T13:05:37.451Z,4.90
2022-12-06T13:08:02.103Z,4.90
2022-12-06T13:10:34.400Z,4.90
2022-12-06T13:13:04.752Z,4.90
2022-12-06T13:15:36.774Z,4.90
2022-12-06T13:18:12.375Z,4.80
2022-12-06T13:20:42.116Z,4.80
2022-12-06T13:23:16.304Z,4.80
2022-12-06T13:25:48.688Z,4.80
2022-12-06T13:28:19.962Z,4.70
2022-12-06T13:30:55.373Z,4.70
2022-12-06T13:33:26.660Z,4.70
2022-12-06T13:36:00.384Z,4.70
2022-12-06T13:38:32.151Z,4.60
2022-12-06T13:41:01.485Z,4.60
2022-12-06T13:43:59.336Z,4.60
2022-12-06T13:46:34.341Z,4.50
2022-12-06T13:49:05.576Z,4.50
2022-12-06T13:51:48.005Z,4.50
2022-12-06T13:54:30.558Z,4.50
2022-12-06T13:57:00.200Z,4.50
2022-12-06T13:59:40.099Z,4.50
2022-12-06T14:02:46.999Z,4.50
2022-12-06T14:08:20.322Z,4.40
2022-12-06T14:10:48.427Z,4.40
2022-12-06T14:13:18.949Z,4.40
2022-12-06T14:15:51.977Z,4.40
2022-12-06T14:18:23.700Z,4.40
2022-12-06T14:20:53.990Z,4.40
2022-12-06T14:23:29.176Z,4.40
2022-12-06T14:26:15.215Z,4.40
2022-12-06T14:28:43.819Z,4.40
2022-12-06T14:31:25.374Z,4.30
2022-12-06T14:33:54.450Z,4.30
2022-12-06T14:36:27.335Z,4.30
2022-12-06T14:39:03.281Z,4.30
2022-12-06T14:41:51.663Z,4.30
2022-12-06T14:44:20.851Z,4.30
2022-12-06T14:46:50.675Z,4.30
2022-12-06T14:49:38.843Z,4.30
2022-12-06T14:52:20.053Z,4.20
2022-12-06T14:54:50.191Z,4.20
2022-12-06T14:57:26.599Z,4.20
2022-12-06T15:00:27.113Z,4.20
2022-12-06T15:03:03.379Z,4.20
2022-12-06T15:05:36.403Z,4.20
2022-12-06T15:08:35.653Z,4.20
2022-12-06T15:11:35.905Z,4.10
2022-12-06T15:14:16.144Z,4.10
2022-12-06T15:16:45.946Z,4.10
2022-12-06T15:19:16.584Z,4.10
2022-12-06T15:21:44.583Z,4.10
2022-12-06T15:24:17.963Z,4.10
2022-12-06T15:26:47.357Z,4.10
2022-12-06T15:29:15.776Z,4.00
2022-12-06T15:31:46.547Z,4.00
2022-12-06T15:34:23.578Z,4.00
2022-12-06T15:37:08.931Z,3.90
2022-12-06T15:39:43.909Z,3.90
2022-12-06T15:42:21.532Z,3.90
2022-12-06T15:44:53.219Z,3.90
2022-12-06T15:47:21.246Z,3.90
2022-12-06T15:49:51.657Z,3.90
2022-12-06T15:52:23.553Z,3.80
2022-12-06T15:54:51.772Z,3.80
2022-12-06T15:57:21.632Z,3.80
2022-12-06T15:59:49.629Z,3.80
2022-12-06T16:02:19.265Z,3.80
2022-12-06T16:04:48.321Z,3.70
2022-12-06T16:07:21.860Z,3.80
2022-12-06T16:09:49.831Z,3.70
2022-12-06T16:12:18.157Z,3.70
2022-12-06T16:14:47.500Z,3.70
2022-12-06T16:17:15.575Z,3.70
2022-12-06T16:20:01.146Z,3.60
2022-12-06T16:22:43.276Z,3.60
2022-12-06T16:25:11.287Z,3.60
2022-12-06T16:27:39.375Z,3.60
2022-12-06T16:30:10.245Z,3.60
2022-12-06T16:32:38.242Z,3.50
2022-12-06T16:35:06.593Z,3.60
2022-12-06T16:37:34.630Z,3.50
2022-12-06T16:40:02.752Z,3.50
2022-12-06T16:42:30.776Z,3.50
2022-12-06T16:45:01.196Z,3.50
2022-12-06T16:49:57.983Z,3.50
2022-12-06T16:52:26.140Z,3.50
2022-12-06T16:54:54.141Z,3.50
2022-12-06T16:57:22.319Z,3.50
2022-12-06T16:59:50.707Z,3.50
2022-12-06T17:02:26.465Z,3.50
2022-12-06T17:04:56.440Z,3.50
2022-12-06T17:07:24.879Z,3.50
2022-12-06T17:09:53.056Z,3.50
2022-12-06T17:12:22.811Z,3.50
2022-12-06T17:14:51.305Z,3.50
2022-12-06T17:17:21.484Z,3.50
2022-12-06T17:19:50.566Z,3.50
2022-12-06T17:22:20.208Z,3.50
2022-12-06T17:24:48.291Z,3.50
2022-12-06T17:27:16.788Z,3.50
2022-12-06T17:29:45.387Z,3.50
2022-12-06T17:32:14.135Z,3.50
2022-12-06T17:34:42.253Z,3.50
2022-12-06T17:37:10.396Z,3.50
2022-12-06T17:39:43.076Z,3.50
2022-12-06T17:42:30.283Z,3.50
2022-12-06T17:44:58.877Z,3.50
2022-12-06T17:47:27.108Z,3.50
2022-12-06T17:49:56.393Z,3.50
2022-12-06T17:52:24.756Z,3.50
2022-12-06T17:54:54.158Z,3.50
2022-12-06T17:57:25.039Z,3.50
2022-12-06T17:59:53.023Z,3.50
2022-12-06T18:02:24.117Z,3.50
2022-12-06T18:04:52.607Z,3.50
2022-12-06T18:07:21.083Z,3.50
2022-12-06T18:09:49.862Z,3.50
2022-12-06T18:12:20.604Z,3.50
2022-12-06T18:14:48.865Z,3.50
2022-12-06T18:17:16.877Z,3.60
2022-12-06T18:19:48.760Z,3.50
2022-12-06T18:22:17.027Z,3.50
2022-12-06T18:24:45.370Z,3.60
2022-12-06T18:27:13.810Z,3.60
2022-12-06T18:29:43.445Z,3.60
2022-12-06T18:32:13.587Z,3.60
2022-12-06T18:34:42.726Z,3.50
2022-12-06T18:37:10.719Z,3.50
2022-12-06T18:39:38.715Z,3.60
2022-12-06T18:42:06.883Z,3.60
2022-12-06T18:44:34.875Z,3.60
2022-12-06T18:47:04.364Z,3.60
2022-12-06T18:49:32.560Z,3.60
2022-12-06T18:52:00.556Z,3.60
2022-12-06T18:54:28.591Z,3.60
2022-12-06T18:56:58.960Z,3.60
2022-12-06T18:59:27.977Z,3.60
2022-12-06T19:01:56.711Z,3.60
2022-12-06T19:04:26.173Z,3.60
2022-12-06T19:06:54.291Z,3.60
2022-12-06T19:09:23.176Z,3.60
2022-12-06T19:11:52.256Z,3.60
2022-12-06T19:14:23.796Z,3.50
2022-12-06T19:16:53.244Z,3.60
2022-12-06T19:19:23.304Z,3.60
2022-12-06T19:21:57.173Z,3.60
2022-12-06T19:24:26.725Z,3.60
2022-12-06T19:26:57.905Z,3.60
2022-12-06T19:29:26.511Z,3.60
2022-12-06T19:32:00.255Z,3.50
2022-12-06T19:34:30.135Z,3.60
2022-12-06T19:36:59.706Z,3.50
2022-12-06T19:39:27.852Z,3.50
2022-12-06T19:42:13.330Z,3.50
2022-12-06T19:44:42.488Z,3.50
2022-12-06T19:47:10.712Z,3.50
2022-12-06T19:49:41.314Z,3.40
2022-12-06T19:52:10.847Z,3.40
2022-12-06T19:54:40.367Z,3.40
2022-12-06T19:57:09.585Z,3.40
2022-12-06T19:59:39.485Z,3.40
2022-12-06T20:02:08.080Z,3.40
2022-12-06T20:04:41.729Z,3.40
2022-12-06T20:07:12.307Z,3.40
2022-12-06T20:09:40.353Z,3.30
2022-12-06T20:12:08.990Z,3.40
2022-12-06T20:14:39.579Z,3.40
2022-12-06T20:17:09.328Z,3.30
2022-12-06T20:19:40.212Z,3.40
2022-12-06T20:22:08.291Z,3.30
2022-12-06T20:24:38.121Z,3.30
2022-12-06T20:27:06.250Z,3.30
2022-12-06T20:29:34.299Z,3.30
2022-12-06T20:32:03.251Z,3.30
2022-12-06T20:34:33.839Z,3.30
2022-12-06T20:37:06.997Z,3.20
2022-12-06T20:39:37.260Z,3.20
2022-12-06T20:42:08.755Z,3.30
2022-12-06T20:44:36.873Z,3.20
2022-12-06T20:47:05.324Z,3.20
2022-12-06T20:49:33.448Z,3.20
2022-12-06T20:52:02.829Z,3.20
2022-12-06T20:54:30.944Z,3.20
2022-12-06T20:56:59.044Z,3.20
2022-12-06T20:59:29.344Z,3.20
2022-12-06T21:01:57.495Z,3.20
2022-12-06T21:04:26.128Z,3.20
2022-12-06T21:06:54.277Z,3.20
2022-12-06T21:09:23.082Z,3.20
2022-12-06T21:11:51.316Z,3.20
2022-12-06T21:14:19.582Z,3.10
2022-12-06T21:16:49.011Z,3.10
2022-12-06T21:19:19.417Z,3.10
2022-12-06T21:21:49.868Z,3.10
2022-12-06T21:24:20.440Z,3.10
2022-12-06T21:26:49.315Z,3.10
2022-12-06T21:29:18.699Z,3.10
2022-12-06T21:31:48.371Z,3.10
2022-12-06T21:34:16.638Z,3.10
2022-12-06T21:36:45.631Z,3.10
2022-12-06T21:39:15.108Z,3.10
2022-12-06T21:41:43.197Z,3.10
2022-12-06T21:44:11.303Z,3.10
2022-12-06T21:46:39.787Z,3.10
2022-12-06T21:49:10.671Z,3.10
2022-12-06T21:51:38.657Z,3.10
2022-12-06T21:54:06.900Z,3.10
2022-12-06T21:56:35.161Z,3.10
2022-12-06T21:59:03.429Z,3.10
2022-12-06T22:01:32.667Z,3.00
2022-12-06T22:04:02.965Z,3.00
2022-12-06T22:06:33.403Z,3.00
2022-12-06T22:09:03.319Z,3.00
2022-12-06T22:11:32.489Z,3.00
2022-12-06T22:14:01.698Z,3.00
2022-12-06T22:16:30.478Z,2.90
2022-12-06T22:18:58.728Z,2.90
2022-12-06T22:21:29.570Z,3.00
2022-12-06T22:24:00.042Z,2.90
2022-12-06T22:26:30.734Z,2.90
2022-12-06T22:29:00.010Z,3.00
2022-12-06T22:31:29.772Z,3.00
2022-12-06T22:33:58.626Z,3.00
2022-12-06T22:36:27.558Z,3.00
2022-12-06T22:38:59.768Z,3.00
2022-12-06T22:41:28.923Z,3.00
2022-12-06T22:43:58.968Z,3.00
2022-12-06T22:46:27.336Z,3.00
2022-12-06T22:48:58.862Z,3.00
2022-12-06T22:51:29.068Z,3.00
2022-12-06T22:54:00.342Z,3.00
2022-12-06T22:56:29.564Z,3.00
2022-12-06T22:58:59.609Z,3.00
2022-12-06T23:01:29.929Z,3.00
2022-12-06T23:04:01.661Z,3.00
2022-12-06T23:06:30.300Z,3.00
2022-12-06T23:08:59.796Z,3.00
2022-12-06T23:11:29.368Z,3.00
2022-12-06T23:13:58.586Z,3.00
2022-12-06T23:16:29.115Z,3.00
2022-12-06T23:18:57.616Z,3.00
2022-12-06T23:21:27.179Z,3.00
2022-12-06T23:23:59.117Z,3.00
2022-12-06T23:26:30.611Z,3.00
2022-12-06T23:28:58.690Z,3.00
2022-12-06T23:31:29.322Z,3.00
2022-12-06T23:34:01.908Z,3.00
2022-12-06T23:36:32.179Z,3.00
2022-12-06T23:39:00.556Z,3.00
2022-12-06T23:41:31.592Z,3.00
2022-12-06T23:44:00.304Z,3.00
2022-12-06T23:46:31.038Z,3.00
2022-12-06T23:48:59.743Z,3.00
2022-12-06T23:51:30.759Z,3.10
2022-12-06T23:54:00.201Z,3.00
2022-12-06T23:56:31.415Z,3.00
2022-12-06T23:59:00.395Z,3.00
